createdAt,value
2018-08-17T00:01:51.932Z,17.11
2018-08-17T00:04:19.107Z,17.40
2018-08-17T00:06:46.276Z,17.48
2018-08-17T00:09:13.606Z,17.54
2018-08-17T00:11:40.780Z,17.56
2018-08-17T00:14:08.271Z,17.42
2018-08-17T00:16:35.403Z,17.07
2018-08-17T00:19:03.260Z,17.35
2018-08-17T00:21:30.409Z,17.10
2018-08-17T00:23:57.581Z,17.20
2018-08-17T00:26:24.732Z,17.11
2018-08-17T00:28:51.959Z,17.06
2018-08-17T00:31:19.089Z,16.92
2018-08-17T00:33:46.229Z,16.83
2018-08-17T00:36:13.328Z,17.04
2018-08-17T00:38:40.452Z,17.29
2018-08-17T00:41:07.696Z,17.21
2018-08-17T00:43:34.846Z,17.16
2018-08-17T00:46:02.072Z,17.09
2018-08-17T00:48:29.620Z,17.18
2018-08-17T00:50:56.732Z,17.02
2018-08-17T00:53:23.900Z,17.02
2018-08-17T00:55:51.028Z,16.94
2018-08-17T00:58:18.148Z,17.03
2018-08-17T01:00:45.308Z,17.04
2018-08-17T01:03:12.403Z,17.03
2018-08-17T01:05:39.552Z,16.99
2018-08-17T01:08:06.988Z,16.91
2018-08-17T01:10:34.114Z,16.46
2018-08-17T01:13:01.273Z,15.99
2018-08-17T01:15:28.423Z,15.72
2018-08-17T01:17:55.600Z,15.50
2018-08-17T01:20:22.756Z,16.11
2018-08-17T01:22:49.866Z,16.25
2018-08-17T01:25:17.021Z,16.33
2018-08-17T01:27:44.184Z,16.40
2018-08-17T01:30:11.351Z,16.52
2018-08-17T01:32:38.493Z,16.33
2018-08-17T01:35:06.012Z,16.51
2018-08-17T01:37:33.133Z,16.47
2018-08-17T01:40:00.337Z,16.35
2018-08-17T01:42:27.466Z,16.21
2018-08-17T01:44:54.583Z,16.14
2018-08-17T01:47:21.780Z,16.10
2018-08-17T01:49:48.924Z,16.05
2018-08-17T01:52:16.052Z,15.98
2018-08-17T01:54:43.201Z,15.99
2018-08-17T01:57:10.408Z,16.15
2018-08-17T01:59:37.508Z,16.06
2018-08-17T02:02:04.776Z,15.99
2018-08-17T02:04:31.856Z,16.03
2018-08-17T02:06:58.952Z,16.09
2018-08-17T02:09:26.092Z,16.02
2018-08-17T02:11:53.268Z,15.31
2018-08-17T02:14:20.447Z,15.28
2018-08-17T02:16:47.570Z,15.61
2018-08-17T02:19:14.717Z,15.40
2018-08-17T02:21:41.818Z,15.08
2018-08-17T02:24:08.993Z,14.56
2018-08-17T02:26:36.061Z,14.63
2018-08-17T02:29:03.301Z,15.07
2018-08-17T02:31:30.458Z,14.18
2018-08-17T02:33:57.600Z,15.31
2018-08-17T02:36:24.728Z,15.53
2018-08-17T02:38:51.830Z,15.62
2018-08-17T02:41:18.983Z,15.29
2018-08-17T02:43:46.203Z,15.34
2018-08-17T02:46:13.356Z,15.30
2018-08-17T02:48:40.451Z,15.36
2018-08-17T02:51:07.588Z,15.09
2018-08-17T02:53:34.776Z,15.09
2018-08-17T02:56:01.903Z,14.80
2018-08-17T02:58:29.159Z,14.73
2018-08-17T03:00:56.515Z,14.29
2018-08-17T03:03:23.683Z,14.65
2018-08-17T03:05:50.855Z,15.01
2018-08-17T03:08:18.005Z,15.10
2018-08-17T03:10:45.183Z,15.07
2018-08-17T03:13:12.332Z,15.08
2018-08-17T03:15:39.443Z,15.07
2018-08-17T03:18:06.577Z,14.71
2018-08-17T03:20:33.768Z,14.94
2018-08-17T03:23:00.917Z,14.69
2018-08-17T03:25:28.052Z,14.83
2018-08-17T03:27:55.192Z,14.92
2018-08-17T03:30:22.365Z,15.12
2018-08-17T03:32:49.508Z,15.09
2018-08-17T03:35:16.632Z,14.87
2018-08-17T03:37:43.762Z,14.77
2018-08-17T03:40:10.865Z,14.69
2018-08-17T03:42:37.979Z,14.92
2018-08-17T03:45:05.535Z,14.82
2018-08-17T03:47:32.629Z,14.64
2018-08-17T03:49:59.829Z,14.29
2018-08-17T03:52:26.976Z,14.60
2018-08-17T03:54:54.160Z,14.30
2018-08-17T03:57:21.292Z,13.98
2018-08-17T03:59:48.432Z,14.23
2018-08-17T04:02:15.516Z,14.63
2018-08-17T04:04:42.618Z,14.68
2018-08-17T04:07:09.774Z,14.45
2018-08-17T04:09:37.052Z,14.60
2018-08-17T04:12:04.196Z,14.73
2018-08-17T04:14:31.297Z,14.46
2018-08-17T04:16:58.432Z,14.72
2018-08-17T04:19:25.600Z,14.71
2018-08-17T04:21:52.735Z,14.88
2018-08-17T04:24:19.869Z,14.82
2018-08-17T04:26:47.078Z,14.37
2018-08-17T04:29:14.205Z,14.60
2018-08-17T04:31:41.356Z,14.28
2018-08-17T04:34:08.507Z,14.18
2018-08-17T04:36:35.655Z,14.26
2018-08-17T04:39:02.976Z,14.44
2018-08-17T04:41:30.127Z,14.68
2018-08-17T04:43:57.332Z,14.72
2018-08-17T04:46:24.492Z,14.92
2018-08-17T04:48:51.820Z,14.53
2018-08-17T04:51:18.903Z,14.52
2018-08-17T04:53:46.036Z,14.66
2018-08-17T04:56:13.200Z,14.78
2018-08-17T04:58:40.362Z,14.68
2018-08-17T05:01:07.790Z,14.74
2018-08-17T05:03:35.025Z,14.87
2018-08-17T05:06:02.176Z,14.94
2018-08-17T05:08:29.280Z,15.03
2018-08-17T05:10:56.403Z,15.08
2018-08-17T05:13:23.477Z,15.23
2018-08-17T05:15:50.644Z,15.53
2018-08-17T05:18:17.765Z,15.37
2018-08-17T05:20:44.934Z,15.21
2018-08-17T05:23:12.088Z,15.28
2018-08-17T05:25:39.188Z,15.49
2018-08-17T05:28:06.445Z,15.72
2018-08-17T05:30:33.716Z,15.77
2018-08-17T05:33:00.897Z,15.72
2018-08-17T05:35:28.014Z,15.85
2018-08-17T05:37:55.147Z,16.07
2018-08-17T05:40:22.256Z,16.19
2018-08-17T05:42:49.419Z,16.22
2018-08-17T05:45:16.721Z,16.12
2018-08-17T05:47:43.889Z,16.48
2018-08-17T05:50:11.037Z,16.59
2018-08-17T05:52:38.163Z,16.82
2018-08-17T05:55:05.686Z,16.96
2018-08-17T05:57:33.275Z,17.13
2018-08-17T06:00:00.456Z,17.29
2018-08-17T06:02:27.565Z,17.43
2018-08-17T06:04:54.808Z,17.38
2018-08-17T06:07:22.012Z,17.65
2018-08-17T06:09:49.200Z,17.71
2018-08-17T06:12:16.318Z,18.05
2018-08-17T06:14:43.595Z,18.36
2018-08-17T06:17:10.840Z,18.65
2018-08-17T06:19:37.992Z,18.72
2018-08-17T06:22:05.468Z,18.82
2018-08-17T06:24:32.636Z,18.90
2018-08-17T06:26:59.944Z,19.22
2018-08-17T06:29:27.082Z,19.48
2018-08-17T06:31:54.488Z,19.49
2018-08-17T06:34:21.661Z,19.63
2018-08-17T06:36:48.852Z,19.76
2018-08-17T06:39:16.052Z,19.76
2018-08-17T06:41:43.219Z,20.20
2018-08-17T06:44:10.352Z,20.54
2018-08-17T06:46:37.442Z,20.67
2018-08-17T06:49:04.606Z,20.92
2018-08-17T06:51:31.718Z,21.06
2018-08-17T06:53:58.897Z,21.32
2018-08-17T06:56:26.086Z,21.61
2018-08-17T06:58:53.260Z,21.86
2018-08-17T07:01:20.461Z,21.84
2018-08-17T07:03:47.580Z,22.05
2018-08-17T07:06:14.715Z,22.04
2018-08-17T07:08:41.951Z,22.19
2018-08-17T07:11:09.125Z,22.52
2018-08-17T07:13:36.276Z,22.80
2018-08-17T07:16:03.412Z,22.94
2018-08-17T07:18:30.548Z,23.25
2018-08-17T07:20:57.720Z,23.58
2018-08-17T07:23:24.842Z,23.64
2018-08-17T07:25:51.968Z,23.70
2018-08-17T07:28:19.190Z,23.67
2018-08-17T07:30:46.303Z,23.93
2018-08-17T07:33:13.416Z,24.15
2018-08-17T07:35:40.578Z,24.41
2018-08-17T07:38:07.716Z,24.43
2018-08-17T07:40:34.869Z,24.53
2018-08-17T07:43:01.996Z,24.52
2018-08-17T07:45:29.109Z,24.66
2018-08-17T07:47:56.264Z,24.97
2018-08-17T07:50:23.423Z,25.07
2018-08-17T07:52:50.730Z,25.23
2018-08-17T07:55:17.920Z,25.50
2018-08-17T07:57:45.184Z,25.82
2018-08-17T08:00:13.000Z,25.62
2018-08-17T08:02:40.116Z,25.30
2018-08-17T08:05:09.428Z,25.18
2018-08-17T08:07:36.542Z,25.49
2018-08-17T08:10:04.268Z,25.64
2018-08-17T08:12:31.368Z,25.16
2018-08-17T08:14:58.481Z,25.41
2018-08-17T08:17:25.612Z,25.79
2018-08-17T08:20:04.457Z,25.94
2018-08-17T08:22:31.630Z,26.09
2018-08-17T08:24:58.804Z,26.32
2018-08-17T08:27:25.940Z,26.46
2018-08-17T08:29:53.132Z,26.67
2018-08-17T08:32:20.336Z,26.69
2018-08-17T08:34:47.479Z,26.64
2018-08-17T08:37:14.689Z,26.84
2018-08-17T08:39:41.811Z,26.81
2018-08-17T08:42:09.017Z,26.68
2018-08-17T08:44:36.181Z,26.91
2018-08-17T08:47:03.436Z,26.56
2018-08-17T08:49:30.599Z,26.95
2018-08-17T08:51:57.912Z,26.93
2018-08-17T08:54:25.072Z,26.99
2018-08-17T08:56:52.209Z,27.12
2018-08-17T08:59:19.440Z,27.03
2018-08-17T09:01:46.648Z,27.18
2018-08-17T09:04:13.774Z,27.24
2018-08-17T09:06:40.928Z,27.03
2018-08-17T09:09:08.775Z,27.06
2018-08-17T09:11:35.924Z,27.61
2018-08-17T09:14:03.131Z,27.57
2018-08-17T09:16:30.301Z,27.36
2018-08-17T09:18:57.477Z,27.58
2018-08-17T09:21:24.630Z,27.71
2018-08-17T09:23:51.793Z,27.97
2018-08-17T09:26:18.957Z,28.19
2018-08-17T09:28:46.073Z,28.25
2018-08-17T09:31:13.229Z,28.12
2018-08-17T09:33:40.358Z,28.03
2018-08-17T09:36:07.568Z,27.98
2018-08-17T09:38:34.685Z,28.30
2018-08-17T09:41:01.811Z,28.51
2018-08-17T09:43:28.932Z,28.08
2018-08-17T09:45:56.073Z,28.57
2018-08-17T09:48:23.348Z,28.07
2018-08-17T09:50:50.488Z,28.10
2018-08-17T09:53:17.650Z,27.59
2018-08-17T09:55:44.802Z,28.01
2018-08-17T09:58:11.919Z,28.20
2018-08-17T10:00:44.748Z,28.32
2018-08-17T10:03:17.718Z,28.46
2018-08-17T10:05:44.923Z,28.49
2018-08-17T10:08:17.775Z,28.68
2018-08-17T10:10:44.954Z,29.04
2018-08-17T10:13:12.179Z,29.17
2018-08-17T10:15:39.379Z,29.34
2018-08-17T10:18:06.622Z,29.29
2018-08-17T10:20:33.907Z,29.45
2018-08-17T10:23:10.357Z,29.25
2018-08-17T10:25:37.967Z,29.48
2018-08-17T10:28:05.113Z,29.31
2018-08-17T10:30:32.290Z,29.31
2018-08-17T10:33:00.073Z,29.44
2018-08-17T10:35:30.549Z,29.41
2018-08-17T10:37:58.898Z,29.48
2018-08-17T10:40:26.262Z,29.84
2018-08-17T10:42:53.445Z,30.01
2018-08-17T10:45:22.293Z,29.79
2018-08-17T10:47:50.167Z,29.72
2018-08-17T10:50:17.453Z,29.98
2018-08-17T10:52:44.565Z,30.42
2018-08-17T10:55:12.352Z,30.68
2018-08-17T10:57:39.464Z,30.69
2018-08-17T11:00:07.834Z,31.08
2018-08-17T11:02:35.054Z,30.75
2018-08-17T11:05:02.234Z,30.60
2018-08-17T11:07:35.008Z,30.32
2018-08-17T11:10:02.223Z,30.07
2018-08-17T11:12:29.414Z,29.85
2018-08-17T11:14:56.589Z,30.17
2018-08-17T11:17:23.783Z,29.72
2018-08-17T11:19:50.954Z,29.59
2018-08-17T11:22:18.182Z,29.32
2018-08-17T11:24:45.384Z,28.96
2018-08-17T11:27:12.576Z,28.97
2018-08-17T11:29:39.776Z,28.96
2018-08-17T11:32:07.045Z,28.95
2018-08-17T11:34:34.297Z,28.75
2018-08-17T11:37:01.507Z,28.85
2018-08-17T11:39:28.793Z,28.53
2018-08-17T11:41:56.013Z,28.33
2018-08-17T11:44:23.204Z,28.37
2018-08-17T11:46:50.445Z,28.78
2018-08-17T11:49:17.653Z,29.10
2018-08-17T11:51:44.888Z,29.80
2018-08-17T11:54:12.314Z,29.83
2018-08-17T11:56:39.893Z,29.58
2018-08-17T11:59:07.125Z,29.34
2018-08-17T12:01:34.892Z,29.59
2018-08-17T12:04:02.273Z,29.32
2018-08-17T12:06:29.520Z,29.33
2018-08-17T12:08:56.714Z,30.19
2018-08-17T12:11:23.950Z,31.07
2018-08-17T12:13:51.106Z,30.91
2018-08-17T12:16:18.297Z,30.37
2018-08-17T12:18:45.513Z,30.31
2018-08-17T12:21:12.776Z,30.43
2018-08-17T12:23:39.957Z,30.84
2018-08-17T12:26:07.141Z,30.34
2018-08-17T12:28:34.354Z,30.31
2018-08-17T12:31:01.539Z,31.21
2018-08-17T12:33:28.720Z,31.17
2018-08-17T12:35:55.892Z,31.60
2018-08-17T12:38:23.053Z,31.60
2018-08-17T12:40:52.446Z,31.78
2018-08-17T12:43:23.402Z,30.78
2018-08-17T12:45:50.543Z,30.30
2018-08-17T12:48:17.741Z,31.46
2018-08-17T12:50:45.272Z,32.14
2018-08-17T12:53:12.764Z,32.70
2018-08-17T12:55:39.970Z,33.22
2018-08-17T12:58:07.283Z,32.98
2018-08-17T13:00:34.481Z,32.79
2018-08-17T13:03:01.717Z,33.77
2018-08-17T13:05:28.876Z,33.67
2018-08-17T13:07:56.089Z,33.55
2018-08-17T13:10:23.253Z,33.40
2018-08-17T13:12:55.913Z,32.47
2018-08-17T13:15:23.751Z,33.16
2018-08-17T13:17:50.913Z,33.49
2018-08-17T13:20:18.763Z,34.07
2018-08-17T13:22:45.964Z,33.05
2018-08-17T13:25:13.134Z,32.99
2018-08-17T13:27:40.319Z,32.27
2018-08-17T13:30:10.266Z,32.64
2018-08-17T13:32:37.446Z,33.43
2018-08-17T13:35:04.731Z,33.92
2018-08-17T13:37:31.990Z,34.22
2018-08-17T13:39:59.168Z,34.53
2018-08-17T13:42:26.473Z,34.23
2018-08-17T13:44:53.532Z,33.99
2018-08-17T13:47:20.730Z,33.21
2018-08-17T13:49:47.853Z,32.42
2018-08-17T13:52:15.009Z,31.71
2018-08-17T13:54:42.208Z,31.40
2018-08-17T13:57:09.452Z,31.61
2018-08-17T13:59:36.645Z,32.88
2018-08-17T14:02:03.809Z,33.64
2018-08-17T14:04:31.022Z,33.61
2018-08-17T14:06:58.251Z,33.80
2018-08-17T14:09:25.427Z,34.43
2018-08-17T14:11:52.592Z,33.69
2018-08-17T14:14:19.802Z,33.73
2018-08-17T14:16:47.007Z,33.54
2018-08-17T14:19:14.190Z,34.11
2018-08-17T14:21:41.394Z,34.00
2018-08-17T14:24:08.558Z,34.55
2018-08-17T14:26:35.783Z,33.75
2018-08-17T14:29:02.943Z,33.73
2018-08-17T14:31:30.102Z,34.13
2018-08-17T14:33:57.284Z,33.86
2018-08-17T14:36:24.412Z,34.04
2018-08-17T14:38:51.539Z,33.35
2018-08-17T14:41:18.688Z,33.73
2018-08-17T14:43:45.814Z,34.09
2018-08-17T14:46:13.002Z,33.07
2018-08-17T14:48:40.152Z,32.85
2018-08-17T14:51:07.421Z,33.11
2018-08-17T14:53:34.574Z,33.44
2018-08-17T14:56:01.729Z,33.58
2018-08-17T14:58:28.933Z,33.34
2018-08-17T15:00:56.089Z,33.28
2018-08-17T15:03:23.305Z,32.89
2018-08-17T15:05:50.449Z,32.86
2018-08-17T15:08:17.643Z,31.99
2018-08-17T15:10:44.796Z,31.71
2018-08-17T15:13:11.983Z,31.41
2018-08-17T15:15:39.104Z,32.41
2018-08-17T15:18:06.289Z,32.56
2018-08-17T15:20:33.413Z,32.93
2018-08-17T15:23:00.566Z,32.95
2018-08-17T15:25:27.733Z,33.15
2018-08-17T15:27:54.859Z,33.09
2018-08-17T15:30:22.038Z,33.23
2018-08-17T15:32:49.436Z,33.69
2018-08-17T15:35:16.595Z,33.81
2018-08-17T15:37:44.045Z,33.39
2018-08-17T15:40:12.015Z,33.47
2018-08-17T15:42:39.684Z,33.85
2018-08-17T15:45:07.447Z,33.56
2018-08-17T15:47:35.537Z,33.85
2018-08-17T15:50:07.431Z,34.30
2018-08-17T15:52:34.624Z,34.27
2018-08-17T15:55:01.734Z,34.59
2018-08-17T15:57:28.957Z,33.37
2018-08-17T15:59:56.115Z,33.77
2018-08-17T16:02:25.653Z,33.83
2018-08-17T16:04:55.021Z,33.96
2018-08-17T16:07:22.264Z,33.87
2018-08-17T16:09:49.525Z,33.87
2018-08-17T16:12:16.706Z,33.68
2018-08-17T16:14:43.922Z,34.11
2018-08-17T16:17:11.136Z,33.82
2018-08-17T16:19:38.354Z,33.34
2018-08-17T16:22:05.944Z,33.51
2018-08-17T16:24:33.100Z,32.96
2018-08-17T16:27:00.384Z,32.97
2018-08-17T16:29:27.604Z,32.80
2018-08-17T16:31:54.885Z,33.77
2018-08-17T16:34:22.102Z,34.05
2018-08-17T16:36:49.283Z,33.25
2018-08-17T16:39:16.995Z,32.99
2018-08-17T16:41:44.317Z,32.46
2018-08-17T16:44:11.955Z,32.20
2018-08-17T16:46:40.407Z,32.09
2018-08-17T16:49:07.760Z,31.80
2018-08-17T16:51:35.040Z,31.43
2018-08-17T16:54:02.235Z,31.04
2018-08-17T16:56:29.434Z,31.32
2018-08-17T16:58:56.668Z,30.93
2018-08-17T17:01:23.896Z,31.14
2018-08-17T17:03:51.200Z,30.99
2018-08-17T17:06:18.345Z,30.85
2018-08-17T17:08:45.554Z,30.85
2018-08-17T17:11:12.715Z,29.59
2018-08-17T17:13:41.070Z,30.03
2018-08-17T17:16:08.282Z,29.89
2018-08-17T17:18:35.453Z,29.84
2018-08-17T17:21:02.675Z,29.77
2018-08-17T17:23:29.846Z,29.64
2018-08-17T17:25:56.995Z,29.55
2018-08-17T17:28:29.029Z,29.57
2018-08-17T17:30:56.239Z,29.62
2018-08-17T17:33:23.397Z,29.51
2018-08-17T17:35:50.627Z,29.47
2018-08-17T17:38:17.841Z,29.24
2018-08-17T17:40:45.083Z,28.82
2018-08-17T17:43:12.283Z,28.72
2018-08-17T17:45:39.890Z,28.67
2018-08-17T17:48:07.329Z,28.58
2018-08-17T17:50:34.513Z,28.49
2018-08-17T17:53:02.573Z,28.16
2018-08-17T17:55:35.342Z,28.09
2018-08-17T17:58:02.497Z,27.82
2018-08-17T18:00:29.952Z,28.19
2018-08-17T18:02:57.164Z,28.47
2018-08-17T18:05:24.357Z,28.53
2018-08-17T18:07:51.555Z,28.09
2018-08-17T18:10:20.153Z,27.82
2018-08-17T18:12:47.800Z,27.60
2018-08-17T18:15:14.998Z,27.55
2018-08-17T18:17:42.213Z,27.70
2018-08-17T18:20:10.053Z,27.66
2018-08-17T18:22:37.166Z,27.46
2018-08-17T18:25:10.271Z,27.15
2018-08-17T18:27:37.441Z,26.80
2018-08-17T18:30:05.043Z,26.54
2018-08-17T18:32:32.206Z,25.61
2018-08-17T18:34:59.559Z,25.45
2018-08-17T18:37:26.852Z,25.59
2018-08-17T18:39:54.002Z,25.31
2018-08-17T18:42:21.128Z,25.50
2018-08-17T18:44:48.254Z,25.48
2018-08-17T18:47:15.448Z,25.70
2018-08-17T18:49:42.667Z,25.65
2018-08-17T18:52:09.913Z,24.99
2018-08-17T18:54:37.092Z,25.00
2018-08-17T18:57:04.321Z,24.81
2018-08-17T18:59:31.527Z,24.83
2018-08-17T19:01:58.712Z,24.97
2018-08-17T19:04:25.993Z,24.51
2018-08-17T19:06:53.342Z,24.30
2018-08-17T19:09:20.569Z,24.54
2018-08-17T19:11:47.749Z,24.71
2018-08-17T19:14:14.941Z,24.67
2018-08-17T19:16:42.161Z,24.54
2018-08-17T19:19:09.329Z,24.44
2018-08-17T19:21:36.457Z,24.44
2018-08-17T19:24:08.468Z,24.62
2018-08-17T19:26:35.676Z,24.63
2018-08-17T19:29:02.912Z,24.57
2018-08-17T19:31:30.117Z,24.18
2018-08-17T19:33:57.328Z,24.18
2018-08-17T19:36:24.480Z,23.99
2018-08-17T19:38:51.792Z,23.32
2018-08-17T19:41:18.954Z,23.22
2018-08-17T19:43:46.643Z,23.17
2018-08-17T19:46:13.970Z,23.30
2018-08-17T19:48:41.005Z,23.62
2018-08-17T19:51:13.970Z,23.57
2018-08-17T19:53:41.213Z,23.40
2018-08-17T19:56:08.503Z,23.40
2018-08-17T19:58:35.748Z,22.96
2018-08-17T20:01:03.277Z,22.59
2018-08-17T20:03:30.522Z,22.54
2018-08-17T20:05:57.798Z,22.59
2018-08-17T20:08:25.222Z,22.60
2018-08-17T20:10:53.015Z,22.81
2018-08-17T20:13:30.493Z,22.92
2018-08-17T20:15:58.018Z,23.07
2018-08-17T20:18:25.228Z,22.92
2018-08-17T20:20:52.415Z,22.88
2018-08-17T20:23:32.477Z,22.55
2018-08-17T20:25:59.754Z,22.58
2018-08-17T20:28:29.282Z,22.58
2018-08-17T20:30:56.521Z,22.23
2018-08-17T20:33:27.609Z,21.96
2018-08-17T20:35:55.264Z,22.01
2018-08-17T20:38:22.609Z,22.22
2018-08-17T20:40:49.805Z,22.12
2018-08-17T20:43:17.033Z,22.38
2018-08-17T20:45:44.208Z,22.56
2018-08-17T20:48:11.396Z,22.93
2018-08-17T20:50:38.564Z,23.17
2018-08-17T20:53:05.782Z,23.22
2018-08-17T20:55:33.039Z,23.16
2018-08-17T20:58:00.338Z,23.25
2018-08-17T21:00:28.564Z,23.31
2018-08-17T21:15:55.378Z,23.25
2018-08-17T21:18:22.550Z,22.27
2018-08-17T21:20:54.835Z,22.48
2018-08-17T21:23:32.141Z,22.55
2018-08-17T21:25:59.662Z,22.37
2018-08-17T21:28:26.890Z,22.18
2018-08-17T21:30:54.115Z,22.28
2018-08-17T21:33:21.306Z,22.33
2018-08-17T21:35:48.482Z,22.29
2018-08-17T21:38:15.736Z,22.29
2018-08-17T21:40:42.944Z,22.32
2018-08-17T21:43:10.177Z,22.29
2018-08-17T21:45:37.343Z,22.36
2018-08-17T21:48:08.695Z,22.34
2018-08-17T21:50:35.725Z,22.28
2018-08-17T21:53:02.888Z,22.24
2018-08-17T21:55:30.003Z,22.20
2018-08-17T21:57:57.192Z,22.11
2018-08-17T22:00:28.656Z,22.11
2018-08-17T22:02:55.872Z,22.12
2018-08-17T22:05:37.962Z,22.09
2018-08-17T22:08:05.192Z,21.98
2018-08-17T22:10:32.365Z,21.92
2018-08-17T22:12:59.474Z,21.87
2018-08-17T22:15:28.247Z,21.91
2018-08-17T22:17:55.384Z,21.94
2018-08-17T22:20:22.558Z,21.73
2018-08-17T22:22:49.739Z,21.81
2018-08-17T22:25:17.781Z,21.73
2018-08-17T22:27:45.305Z,21.67
2018-08-17T22:30:16.698Z,21.63
2018-08-17T22:32:43.802Z,21.62
2018-08-17T22:35:11.320Z,21.59
2018-08-17T22:37:38.442Z,21.58
2018-08-17T22:40:05.577Z,21.56
2018-08-17T22:42:32.708Z,21.55
2018-08-17T22:45:00.276Z,21.45
2018-08-17T22:47:28.156Z,21.40
2018-08-17T22:49:57.388Z,21.37
2018-08-17T22:52:24.564Z,21.26
2018-08-17T22:54:57.779Z,21.23
2018-08-17T22:57:25.564Z,21.14
2018-08-17T23:00:09.860Z,21.14
2018-08-17T23:02:37.412Z,21.02
2018-08-17T23:05:05.533Z,21.01
2018-08-17T23:07:32.775Z,20.96
2018-08-17T23:09:59.916Z,21.00
2018-08-17T23:12:27.057Z,20.88
2018-08-17T23:14:54.266Z,20.71
2018-08-17T23:17:21.382Z,20.81
2018-08-17T23:19:48.544Z,20.61
2018-08-17T23:22:15.741Z,20.58
2018-08-17T23:24:42.881Z,20.60
2018-08-17T23:27:10.044Z,20.70
2018-08-17T23:29:37.214Z,20.68
2018-08-17T23:32:04.415Z,20.75
2018-08-17T23:34:31.593Z,20.66
2018-08-17T23:36:58.750Z,20.79
2018-08-17T23:39:25.929Z,20.57
2018-08-17T23:41:53.158Z,20.59
2018-08-17T23:44:20.256Z,20.66
2018-08-17T23:46:47.484Z,20.56
2018-08-17T23:49:14.622Z,20.64
2018-08-17T23:51:41.757Z,20.52
2018-08-17T23:54:08.906Z,20.47
2018-08-17T23:56:36.116Z,20.43
2018-08-17T23:59:03.337Z,20.47
